sensor_id;sensor_type;location;lat;lon;timestamp;pressure;altitude;pressure_sealevel;temperature;humidity
72134;BME280;60011;51.518;-3.188;2022-07-15T00:00:11;102230.14;;;26.60;38.34
72134;BME280;60011;51.518;-3.188;2022-07-15T00:02:37;102231.56;;;26.58;38.32
72134;BME280;60011;51.518;-3.188;2022-07-15T00:05:01;102227.22;;;26.58;38.34
72134;BME280;60011;51.518;-3.188;2022-07-15T00:07:27;102229.17;;;26.58;38.29
72134;BME280;60011;51.518;-3.188;2022-07-15T00:09:52;102230.59;;;26.56;38.34
72134;BME280;60011;51.518;-3.188;2022-07-15T00:12:17;102227.94;;;26.57;38.30
72134;BME280;60011;51.518;-3.188;2022-07-15T00:14:42;102221.91;;;26.55;38.29
72134;BME280;60011;51.518;-3.188;2022-07-15T00:17:08;102220.69;;;26.55;38.28
72134;BME280;60011;51.518;-3.188;2022-07-15T00:19:33;102219.85;;;26.54;38.32
72134;BME280;60011;51.518;-3.188;2022-07-15T00:21:58;102222.35;;;26.54;38.28
72134;BME280;60011;51.518;-3.188;2022-07-15T00:24:23;102222.44;;;26.54;38.27
72134;BME280;60011;51.518;-3.188;2022-07-15T00:26:49;102222.00;;;26.53;38.20
72134;BME280;60011;51.518;-3.188;2022-07-15T00:29:14;102224.54;;;26.53;38.18
72134;BME280;60011;51.518;-3.188;2022-07-15T00:31:39;102222.27;;;26.52;38.18
72134;BME280;60011;51.518;-3.188;2022-07-15T00:34:04;102220.32;;;26.49;38.23
72134;BME280;60011;51.518;-3.188;2022-07-15T00:36:30;102219.27;;;26.49;38.23
72134;BME280;60011;51.518;-3.188;2022-07-15T00:38:55;102217.25;;;26.49;38.18
72134;BME280;60011;51.518;-3.188;2022-07-15T00:41:20;102217.86;;;26.48;38.19
72134;BME280;60011;51.518;-3.188;2022-07-15T00:43:45;102217.70;;;26.46;38.21
72134;BME280;60011;51.518;-3.188;2022-07-15T00:46:15;102212.44;;;26.47;38.21
72134;BME280;60011;51.518;-3.188;2022-07-15T00:48:36;102204.76;;;26.45;38.22
72134;BME280;60011;51.518;-3.188;2022-07-15T00:51:01;102200.90;;;26.43;38.26
72134;BME280;60011;51.518;-3.188;2022-07-15T00:53:28;102198.69;;;26.43;38.21
72134;BME280;60011;51.518;-3.188;2022-07-15T00:55:53;102195.39;;;26.40;38.27
72134;BME280;60011;51.518;-3.188;2022-07-15T00:58:19;102196.70;;;26.36;38.33
72134;BME280;60011;51.518;-3.188;2022-07-15T01:00:43;102198.96;;;26.37;38.32
72134;BME280;60011;51.518;-3.188;2022-07-15T01:03:08;102197.80;;;26.37;38.33
72134;BME280;60011;51.518;-3.188;2022-07-15T01:05:33;102204.80;;;26.38;38.30
72134;BME280;60011;51.518;-3.188;2022-07-15T01:07:58;102205.58;;;26.40;38.28
72134;BME280;60011;51.518;-3.188;2022-07-15T01:10:24;102204.01;;;26.39;38.31
72134;BME280;60011;51.518;-3.188;2022-07-15T01:12:50;102205.68;;;26.39;38.45
72134;BME280;60011;51.518;-3.188;2022-07-15T01:15:16;102206.01;;;26.36;38.59
72134;BME280;60011;51.518;-3.188;2022-07-15T01:17:40;102206.31;;;26.34;38.69
72134;BME280;60011;51.518;-3.188;2022-07-15T01:20:06;102205.79;;;26.31;38.74
72134;BME280;60011;51.518;-3.188;2022-07-15T01:22:30;102205.40;;;26.33;38.68
72134;BME280;60011;51.518;-3.188;2022-07-15T01:24:55;102210.20;;;26.33;38.65
72134;BME280;60011;51.518;-3.188;2022-07-15T01:27:21;102211.68;;;26.34;38.61
72134;BME280;60011;51.518;-3.188;2022-07-15T01:29:46;102210.42;;;26.33;38.61
72134;BME280;60011;51.518;-3.188;2022-07-15T01:32:11;102210.77;;;26.31;38.66
72134;BME280;60011;51.518;-3.188;2022-07-15T01:34:36;102209.79;;;26.30;38.68
72134;BME280;60011;51.518;-3.188;2022-07-15T01:37:02;102211.15;;;26.28;38.65
72134;BME280;60011;51.518;-3.188;2022-07-15T01:39:27;102213.82;;;26.28;38.69
72134;BME280;60011;51.518;-3.188;2022-07-15T01:41:52;102212.14;;;26.27;38.65
72134;BME280;60011;51.518;-3.188;2022-07-15T01:44:18;102214.17;;;26.29;38.63
72134;BME280;60011;51.518;-3.188;2022-07-15T01:46:43;102220.50;;;26.29;38.59
72134;BME280;60011;51.518;-3.188;2022-07-15T01:49:08;102224.55;;;26.29;38.57
72134;BME280;60011;51.518;-3.188;2022-07-15T01:51:33;102228.02;;;26.29;38.58
72134;BME280;60011;51.518;-3.188;2022-07-15T01:53:59;102227.80;;;26.28;38.57
72134;BME280;60011;51.518;-3.188;2022-07-15T01:56:24;102226.48;;;26.30;38.52
72134;BME280;60011;51.518;-3.188;2022-07-15T01:58:49;102226.00;;;26.29;38.53
72134;BME280;60011;51.518;-3.188;2022-07-15T02:01:15;102228.52;;;26.27;38.55
72134;BME280;60011;51.518;-3.188;2022-07-15T02:03:40;102229.23;;;26.30;38.43
72134;BME280;60011;51.518;-3.188;2022-07-15T02:06:05;102228.83;;;26.29;38.44
72134;BME280;60011;51.518;-3.188;2022-07-15T02:08:30;102230.82;;;26.31;38.40
72134;BME280;60011;51.518;-3.188;2022-07-15T02:10:55;102232.23;;;26.29;38.49
72134;BME280;60011;51.518;-3.188;2022-07-15T02:13:21;102232.43;;;26.26;38.52
72134;BME280;60011;51.518;-3.188;2022-07-15T02:15:46;102232.10;;;26.26;38.55
72134;BME280;60011;51.518;-3.188;2022-07-15T02:18:11;102231.16;;;26.27;38.51
72134;BME280;60011;51.518;-3.188;2022-07-15T02:20:36;102226.16;;;26.27;38.51
72134;BME280;60011;51.518;-3.188;2022-07-15T02:23:02;102226.27;;;26.26;38.55
72134;BME280;60011;51.518;-3.188;2022-07-15T02:25:29;102226.30;;;26.24;38.56
72134;BME280;60011;51.518;-3.188;2022-07-15T02:27:53;102225.14;;;26.24;38.47
72134;BME280;60011;51.518;-3.188;2022-07-15T02:30:18;102226.58;;;26.18;38.55
72134;BME280;60011;51.518;-3.188;2022-07-15T02:32:43;102226.68;;;26.19;38.46
72134;BME280;60011;51.518;-3.188;2022-07-15T02:35:08;102223.66;;;26.14;38.55
72134;BME280;60011;51.518;-3.188;2022-07-15T02:37:33;102216.48;;;26.17;38.55
72134;BME280;60011;51.518;-3.188;2022-07-15T02:39:59;102216.81;;;26.15;38.61
72134;BME280;60011;51.518;-3.188;2022-07-15T02:42:24;102216.75;;;26.19;38.58
72134;BME280;60011;51.518;-3.188;2022-07-15T02:44:49;102216.53;;;26.12;38.70
72134;BME280;60011;51.518;-3.188;2022-07-15T02:47:14;102215.69;;;26.15;38.65
72134;BME280;60011;51.518;-3.188;2022-07-15T02:49:40;102214.52;;;26.18;38.56
72134;BME280;60011;51.518;-3.188;2022-07-15T02:52:05;102211.05;;;26.17;38.51
72134;BME280;60011;51.518;-3.188;2022-07-15T02:54:30;102211.98;;;26.13;38.54
72134;BME280;60011;51.518;-3.188;2022-07-15T02:56:55;102213.31;;;26.17;38.49
72134;BME280;60011;51.518;-3.188;2022-07-15T02:59:21;102209.67;;;26.14;38.52
72134;BME280;60011;51.518;-3.188;2022-07-15T03:01:46;102211.28;;;26.09;38.64
72134;BME280;60011;51.518;-3.188;2022-07-15T03:04:11;102212.36;;;26.12;38.62
72134;BME280;60011;51.518;-3.188;2022-07-15T03:06:37;102213.00;;;26.11;38.65
72134;BME280;60011;51.518;-3.188;2022-07-15T03:09:02;102217.07;;;26.09;38.71
72134;BME280;60011;51.518;-3.188;2022-07-15T03:11:27;102216.96;;;26.10;38.76
72134;BME280;60011;51.518;-3.188;2022-07-15T03:13:52;102217.31;;;26.07;38.75
72134;BME280;60011;51.518;-3.188;2022-07-15T03:16:18;102215.11;;;26.07;38.75
72134;BME280;60011;51.518;-3.188;2022-07-15T03:18:43;102213.17;;;26.06;38.73
72134;BME280;60011;51.518;-3.188;2022-07-15T03:21:08;102213.19;;;26.09;38.64
72134;BME280;60011;51.518;-3.188;2022-07-15T03:23:33;102213.43;;;26.08;38.68
72134;BME280;60011;51.518;-3.188;2022-07-15T03:25:59;102211.99;;;26.07;38.67
72134;BME280;60011;51.518;-3.188;2022-07-15T03:28:24;102211.04;;;26.06;38.64
72134;BME280;60011;51.518;-3.188;2022-07-15T03:30:49;102210.83;;;26.06;38.60
72134;BME280;60011;51.518;-3.188;2022-07-15T03:33:14;102212.41;;;26.03;38.61
72134;BME280;60011;51.518;-3.188;2022-07-15T03:35:40;102211.20;;;26.03;38.56
72134;BME280;60011;51.518;-3.188;2022-07-15T03:38:05;102208.56;;;26.03;38.58
72134;BME280;60011;51.518;-3.188;2022-07-15T03:40:30;102205.15;;;25.95;38.74
72134;BME280;60011;51.518;-3.188;2022-07-15T03:42:55;102203.95;;;25.98;38.65
72134;BME280;60011;51.518;-3.188;2022-07-15T03:45:21;102200.94;;;26.02;38.58
72134;BME280;60011;51.518;-3.188;2022-07-15T03:47:46;102197.95;;;25.98;38.61
72134;BME280;60011;51.518;-3.188;2022-07-15T03:50:11;102194.06;;;26.00;38.53
72134;BME280;60011;51.518;-3.188;2022-07-15T03:52:37;102188.56;;;25.95;38.60
72134;BME280;60011;51.518;-3.188;2022-07-15T03:55:02;102187.23;;;25.94;38.61
72134;BME280;60011;51.518;-3.188;2022-07-15T03:57:27;102183.83;;;25.94;38.59
72134;BME280;60011;51.518;-3.188;2022-07-15T03:59:52;102183.42;;;25.93;38.60
72134;BME280;60011;51.518;-3.188;2022-07-15T04:02:18;102184.29;;;25.95;38.60
72134;BME280;60011;51.518;-3.188;2022-07-15T04:04:43;102183.19;;;25.94;38.54
72134;BME280;60011;51.518;-3.188;2022-07-15T04:07:08;102178.26;;;25.93;38.58
72134;BME280;60011;51.518;-3.188;2022-07-15T04:09:34;102170.35;;;25.94;38.54
72134;BME280;60011;51.518;-3.188;2022-07-15T04:11:59;102164.60;;;25.86;38.68
72134;BME280;60011;51.518;-3.188;2022-07-15T04:14:24;102168.60;;;25.90;38.58
72134;BME280;60011;51.518;-3.188;2022-07-15T04:16:49;102167.04;;;25.92;38.55
72134;BME280;60011;51.518;-3.188;2022-07-15T04:19:15;102166.02;;;25.90;38.60
72134;BME280;60011;51.518;-3.188;2022-07-15T04:21:40;102165.78;;;25.88;38.61
72134;BME280;60011;51.518;-3.188;2022-07-15T04:24:05;102168.37;;;25.84;38.69
72134;BME280;60011;51.518;-3.188;2022-07-15T04:26:30;102165.46;;;25.89;38.60
72134;BME280;60011;51.518;-3.188;2022-07-15T04:28:56;102166.09;;;25.84;38.71
72134;BME280;60011;51.518;-3.188;2022-07-15T04:31:21;102162.48;;;25.82;38.76
72134;BME280;60011;51.518;-3.188;2022-07-15T04:33:46;102159.59;;;25.82;38.71
72134;BME280;60011;51.518;-3.188;2022-07-15T04:36:12;102158.90;;;25.84;38.68
72134;BME280;60011;51.518;-3.188;2022-07-15T04:38:37;102159.43;;;25.83;38.61
72134;BME280;60011;51.518;-3.188;2022-07-15T04:41:02;102162.23;;;25.81;38.66
72134;BME280;60011;51.518;-3.188;2022-07-15T04:43:28;102161.54;;;25.80;38.63
72134;BME280;60011;51.518;-3.188;2022-07-15T04:45:53;102162.60;;;25.78;38.65
72134;BME280;60011;51.518;-3.188;2022-07-15T04:48:18;102165.54;;;25.77;38.68
72134;BME280;60011;51.518;-3.188;2022-07-15T04:50:43;102171.14;;;25.79;38.60
72134;BME280;60011;51.518;-3.188;2022-07-15T04:53:09;102175.53;;;25.71;38.78
72134;BME280;60011;51.518;-3.188;2022-07-15T04:55:34;102173.12;;;25.74;38.67
72134;BME280;60011;51.518;-3.188;2022-07-15T04:58:00;102171.56;;;25.72;38.74
72134;BME280;60011;51.518;-3.188;2022-07-15T05:00:25;102172.98;;;25.75;38.73
72134;BME280;60011;51.518;-3.188;2022-07-15T05:02:50;102174.27;;;25.70;38.75
72134;BME280;60011;51.518;-3.188;2022-07-15T05:05:15;102175.59;;;25.72;38.67
72134;BME280;60011;51.518;-3.188;2022-07-15T05:07:41;102171.28;;;25.71;38.69
72134;BME280;60011;51.518;-3.188;2022-07-15T05:10:07;102173.33;;;25.72;38.70
72134;BME280;60011;51.518;-3.188;2022-07-15T05:12:31;102175.90;;;25.72;38.68
72134;BME280;60011;51.518;-3.188;2022-07-15T05:14:56;102183.71;;;25.71;38.74
72134;BME280;60011;51.518;-3.188;2022-07-15T05:17:21;102185.34;;;25.68;38.74
72134;BME280;60011;51.518;-3.188;2022-07-15T05:19:47;102184.62;;;25.67;38.84
72134;BME280;60011;51.518;-3.188;2022-07-15T05:22:12;102189.52;;;25.66;38.77
72134;BME280;60011;51.518;-3.188;2022-07-15T05:24:37;102186.23;;;25.67;38.74
72134;BME280;60011;51.518;-3.188;2022-07-15T05:27:03;102187.80;;;25.67;38.73
72134;BME280;60011;51.518;-3.188;2022-07-15T05:29:28;102192.48;;;25.68;38.65
72134;BME280;60011;51.518;-3.188;2022-07-15T05:31:54;102192.99;;;25.70;38.56
72134;BME280;60011;51.518;-3.188;2022-07-15T05:34:18;102185.82;;;25.66;38.66
72134;BME280;60011;51.518;-3.188;2022-07-15T05:36:44;102186.48;;;25.67;38.67
72134;BME280;60011;51.518;-3.188;2022-07-15T05:39:09;102187.17;;;25.70;38.57
72134;BME280;60011;51.518;-3.188;2022-07-15T05:41:34;102189.37;;;25.67;38.61
72134;BME280;60011;51.518;-3.188;2022-07-15T05:44:00;102190.80;;;25.70;38.58
72134;BME280;60011;51.518;-3.188;2022-07-15T05:46:25;102192.71;;;25.67;38.83
72134;BME280;60011;51.518;-3.188;2022-07-15T05:48:50;102189.66;;;25.70;38.74
72134;BME280;60011;51.518;-3.188;2022-07-15T05:51:15;102191.13;;;25.67;38.78
72134;BME280;60011;51.518;-3.188;2022-07-15T05:53:41;102188.10;;;25.71;38.73
72134;BME280;60011;51.518;-3.188;2022-07-15T05:56:07;102184.92;;;25.71;38.78
72134;BME280;60011;51.518;-3.188;2022-07-15T05:58:31;102184.15;;;25.70;38.84
72134;BME280;60011;51.518;-3.188;2022-07-15T06:00:56;102186.54;;;25.68;38.84
72134;BME280;60011;51.518;-3.188;2022-07-15T06:03:22;102187.85;;;25.69;38.81
72134;BME280;60011;51.518;-3.188;2022-07-15T06:05:47;102185.52;;;25.70;38.82
72134;BME280;60011;51.518;-3.188;2022-07-15T06:08:12;102183.49;;;25.69;38.87
72134;BME280;60011;51.518;-3.188;2022-07-15T06:10:38;102180.84;;;25.70;38.84
72134;BME280;60011;51.518;-3.188;2022-07-15T06:13:03;102182.45;;;25.70;38.87
72134;BME280;60011;51.518;-3.188;2022-07-15T06:15:28;102184.44;;;25.70;38.91
72134;BME280;60011;51.518;-3.188;2022-07-15T06:17:53;102189.90;;;25.68;38.92
72134;BME280;60011;51.518;-3.188;2022-07-15T06:20:19;102192.04;;;25.67;38.99
72134;BME280;60011;51.518;-3.188;2022-07-15T06:22:44;102190.24;;;25.70;39.01
72134;BME280;60011;51.518;-3.188;2022-07-15T06:25:09;102189.28;;;25.73;39.25
72134;BME280;60011;51.518;-3.188;2022-07-15T06:27:35;102189.88;;;25.71;39.30
72134;BME280;60011;51.518;-3.188;2022-07-15T06:30:00;102191.85;;;25.73;39.31
72134;BME280;60011;51.518;-3.188;2022-07-15T06:32:25;102194.26;;;25.74;39.44
72134;BME280;60011;51.518;-3.188;2022-07-15T06:34:50;102192.99;;;25.75;39.70
72134;BME280;60011;51.518;-3.188;2022-07-15T06:37:16;102192.24;;;25.74;39.86
72134;BME280;60011;51.518;-3.188;2022-07-15T06:39:41;102191.83;;;25.76;39.90
72134;BME280;60011;51.518;-3.188;2022-07-15T06:42:06;102190.78;;;25.79;40.00
72134;BME280;60011;51.518;-3.188;2022-07-15T06:44:32;102194.66;;;25.79;40.11
72134;BME280;60011;51.518;-3.188;2022-07-15T06:46:57;102191.84;;;25.78;40.46
72134;BME280;60011;51.518;-3.188;2022-07-15T06:49:23;102187.52;;;25.80;40.58
72134;BME280;60011;51.518;-3.188;2022-07-15T06:51:48;102186.86;;;25.80;40.55
72134;BME280;60011;51.518;-3.188;2022-07-15T06:54:13;102183.82;;;25.82;40.40
72134;BME280;60011;51.518;-3.188;2022-07-15T06:56:38;102182.81;;;25.82;40.33
72134;BME280;60011;51.518;-3.188;2022-07-15T06:59:03;102183.19;;;25.80;40.57
72134;BME280;60011;51.518;-3.188;2022-07-15T07:01:29;102182.11;;;25.84;41.43
72134;BME280;60011;51.518;-3.188;2022-07-15T07:03:54;102180.67;;;25.83;41.45
72134;BME280;60011;51.518;-3.188;2022-07-15T07:06:19;102179.46;;;25.83;41.21
72134;BME280;60011;51.518;-3.188;2022-07-15T07:08:45;102176.49;;;25.82;41.06
72134;BME280;60011;51.518;-3.188;2022-07-15T07:11:10;102173.09;;;25.83;40.76
72134;BME280;60011;51.518;-3.188;2022-07-15T07:13:35;102172.53;;;25.83;40.49
72134;BME280;60011;51.518;-3.188;2022-07-15T07:16:01;102173.49;;;25.81;40.43
72134;BME280;60011;51.518;-3.188;2022-07-15T07:18:26;102175.20;;;25.79;40.28
72134;BME280;60011;51.518;-3.188;2022-07-15T07:20:51;102172.23;;;25.79;39.69
72134;BME280;60011;51.518;-3.188;2022-07-15T07:23:16;102171.72;;;25.77;39.87
72134;BME280;60011;51.518;-3.188;2022-07-15T07:25:42;102167.48;;;25.75;39.76
72134;BME280;60011;51.518;-3.188;2022-07-15T07:28:07;102164.87;;;25.75;39.76
72134;BME280;60011;51.518;-3.188;2022-07-15T07:30:32;102160.35;;;25.74;39.35
72134;BME280;60011;51.518;-3.188;2022-07-15T07:32:58;102159.37;;;25.73;39.23
72134;BME280;60011;51.518;-3.188;2022-07-15T07:35:23;102161.55;;;25.71;38.93
72134;BME280;60011;51.518;-3.188;2022-07-15T07:37:48;102157.70;;;25.67;37.68
72134;BME280;60011;51.518;-3.188;2022-07-15T07:40:13;102156.86;;;25.66;37.56
72134;BME280;60011;51.518;-3.188;2022-07-15T07:42:39;102157.55;;;25.63;37.89
72134;BME280;60011;51.518;-3.188;2022-07-15T07:45:05;102155.63;;;25.60;37.45
72134;BME280;60011;51.518;-3.188;2022-07-15T07:47:29;102149.24;;;25.57;37.97
72134;BME280;60011;51.518;-3.188;2022-07-15T07:49:55;102150.19;;;25.60;38.14
72134;BME280;60011;51.518;-3.188;2022-07-15T07:52:20;102151.04;;;25.66;37.77
72134;BME280;60011;51.518;-3.188;2022-07-15T07:54:45;102150.90;;;25.67;38.07
72134;BME280;60011;51.518;-3.188;2022-07-15T07:57:11;102147.97;;;25.66;38.07
72134;BME280;60011;51.518;-3.188;2022-07-15T07:59:36;102145.49;;;25.67;38.00
72134;BME280;60011;51.518;-3.188;2022-07-15T08:02:01;102150.21;;;25.68;38.08
72134;BME280;60011;51.518;-3.188;2022-07-15T08:04:26;102151.51;;;25.71;37.75
72134;BME280;60011;51.518;-3.188;2022-07-15T08:06:52;102149.16;;;25.67;38.00
72134;BME280;60011;51.518;-3.188;2022-07-15T08:09:17;102149.38;;;25.65;37.96
72134;BME280;60011;51.518;-3.188;2022-07-15T08:11:43;102151.41;;;25.67;37.78
72134;BME280;60011;51.518;-3.188;2022-07-15T08:14:08;102154.73;;;25.68;37.48
72134;BME280;60011;51.518;-3.188;2022-07-15T08:16:34;102149.17;;;25.66;37.49
72134;BME280;60011;51.518;-3.188;2022-07-15T08:18:59;102148.27;;;25.63;37.70
72134;BME280;60011;51.518;-3.188;2022-07-15T08:21:24;102152.11;;;25.65;37.26
72134;BME280;60011;51.518;-3.188;2022-07-15T08:23:50;102150.53;;;25.65;37.37
72134;BME280;60011;51.518;-3.188;2022-07-15T08:26:16;102150.51;;;25.54;36.61
72134;BME280;60011;51.518;-3.188;2022-07-15T08:28:41;102147.61;;;25.45;36.36
72134;BME280;60011;51.518;-3.188;2022-07-15T08:31:06;102144.81;;;25.42;36.47
72134;BME280;60011;51.518;-3.188;2022-07-15T08:33:31;102142.09;;;25.34;36.47
72134;BME280;60011;51.518;-3.188;2022-07-15T08:35:57;102145.13;;;25.31;36.21
72134;BME280;60011;51.518;-3.188;2022-07-15T08:38:22;102137.35;;;25.26;36.25
72134;BME280;60011;51.518;-3.188;2022-07-15T08:40:47;102133.93;;;25.19;36.39
72134;BME280;60011;51.518;-3.188;2022-07-15T08:43:12;102134.73;;;25.22;36.73
72134;BME280;60011;51.518;-3.188;2022-07-15T08:45:40;102135.79;;;25.22;37.05
72134;BME280;60011;51.518;-3.188;2022-07-15T08:48:04;102133.21;;;25.17;36.88
72134;BME280;60011;51.518;-3.188;2022-07-15T08:50:29;102128.78;;;25.19;36.88
72134;BME280;60011;51.518;-3.188;2022-07-15T08:52:54;102131.50;;;25.18;36.93
72134;BME280;60011;51.518;-3.188;2022-07-15T08:55:19;102130.89;;;25.12;36.85
72134;BME280;60011;51.518;-3.188;2022-07-15T08:57:45;102136.46;;;25.10;36.88
72134;BME280;60011;51.518;-3.188;2022-07-15T09:00:10;102132.29;;;25.07;36.51
72134;BME280;60011;51.518;-3.188;2022-07-15T09:02:34;102130.80;;;25.03;36.36
72134;BME280;60011;51.518;-3.188;2022-07-15T09:05:18;102126.04;;;24.95;36.38
72134;BME280;60011;51.518;-3.188;2022-07-15T09:07:25;102125.29;;;24.94;36.72
72134;BME280;60011;51.518;-3.188;2022-07-15T09:09:51;102120.52;;;24.93;36.83
72134;BME280;60011;51.518;-3.188;2022-07-15T09:12:16;102121.89;;;24.97;37.04
72134;BME280;60011;51.518;-3.188;2022-07-15T09:14:42;102120.56;;;24.96;36.82
72134;BME280;60011;51.518;-3.188;2022-07-15T09:17:19;102119.32;;;24.90;37.15
72134;BME280;60011;51.518;-3.188;2022-07-15T09:22:01;102116.11;;;24.97;37.42
72134;BME280;60011;51.518;-3.188;2022-07-15T09:24:22;102115.25;;;24.92;37.67
72134;BME280;60011;51.518;-3.188;2022-07-15T09:26:48;102114.16;;;24.91;37.80
72134;BME280;60011;51.518;-3.188;2022-07-15T09:29:15;102112.75;;;24.87;37.97
72134;BME280;60011;51.518;-3.188;2022-07-15T09:31:38;102102.32;;;24.88;38.03
72134;BME280;60011;51.518;-3.188;2022-07-15T09:34:03;102104.78;;;24.88;38.11
72134;BME280;60011;51.518;-3.188;2022-07-15T09:36:31;102103.97;;;24.89;38.29
72134;BME280;60011;51.518;-3.188;2022-07-15T09:38:56;102105.91;;;24.92;38.46
72134;BME280;60011;51.518;-3.188;2022-07-15T09:41:25;102108.91;;;24.96;38.47
72134;BME280;60011;51.518;-3.188;2022-07-15T09:43:47;102103.94;;;25.01;38.47
72134;BME280;60011;51.518;-3.188;2022-07-15T09:46:10;102107.99;;;25.01;38.61
72134;BME280;60011;51.518;-3.188;2022-07-15T09:48:40;102110.35;;;25.06;38.64
72134;BME280;60011;51.518;-3.188;2022-07-15T09:51:01;102108.48;;;25.10;38.62
72134;BME280;60011;51.518;-3.188;2022-07-15T09:53:27;102112.12;;;25.09;38.72
72134;BME280;60011;51.518;-3.188;2022-07-15T09:55:52;102117.93;;;25.13;38.65
72134;BME280;60011;51.518;-3.188;2022-07-15T09:58:17;102118.05;;;25.17;38.64
72134;BME280;60011;51.518;-3.188;2022-07-15T10:00:42;102117.71;;;25.16;38.76
72134;BME280;60011;51.518;-3.188;2022-07-15T10:03:07;102114.60;;;25.21;38.64
72134;BME280;60011;51.518;-3.188;2022-07-15T10:05:34;102117.30;;;25.20;38.73
72134;BME280;60011;51.518;-3.188;2022-07-15T10:07:59;102116.89;;;25.18;39.01
72134;BME280;60011;51.518;-3.188;2022-07-15T10:10:23;102115.17;;;25.18;39.07
72134;BME280;60011;51.518;-3.188;2022-07-15T10:12:56;102113.47;;;25.23;38.97
72134;BME280;60011;51.518;-3.188;2022-07-15T10:15:21;102116.94;;;25.24;38.95
72134;BME280;60011;51.518;-3.188;2022-07-15T10:17:49;102114.50;;;25.24;38.94
72134;BME280;60011;51.518;-3.188;2022-07-15T10:20:17;102112.45;;;25.22;39.22
72134;BME280;60011;51.518;-3.188;2022-07-15T10:22:37;102112.16;;;25.28;39.06
72134;BME280;60011;51.518;-3.188;2022-07-15T10:25:05;102112.71;;;25.28;39.02
72134;BME280;60011;51.518;-3.188;2022-07-15T10:27:41;102108.14;;;25.27;39.11
72134;BME280;60011;51.518;-3.188;2022-07-15T10:29:46;102109.85;;;25.24;39.09
72134;BME280;60011;51.518;-3.188;2022-07-15T10:32:11;102108.42;;;25.24;39.14
72134;BME280;60011;51.518;-3.188;2022-07-15T10:34:37;102107.58;;;25.25;39.26
72134;BME280;60011;51.518;-3.188;2022-07-15T10:37:05;102108.95;;;25.28;39.23
72134;BME280;60011;51.518;-3.188;2022-07-15T10:39:29;102101.99;;;25.30;39.16
72134;BME280;60011;51.518;-3.188;2022-07-15T10:41:54;102103.01;;;25.32;39.23
72134;BME280;60011;51.518;-3.188;2022-07-15T10:44:18;102101.71;;;25.32;39.18
72134;BME280;60011;51.518;-3.188;2022-07-15T10:46:43;102101.93;;;25.29;39.37
72134;BME280;60011;51.518;-3.188;2022-07-15T10:51:44;102097.83;;;25.28;39.84
72134;BME280;60011;51.518;-3.188;2022-07-15T10:53:59;102098.94;;;25.34;39.82
72134;BME280;60011;51.518;-3.188;2022-07-15T10:56:28;102087.63;;;25.32;39.79
72134;BME280;60011;51.518;-3.188;2022-07-15T11:01:26;102088.67;;;25.34;39.62
72134;BME280;60011;51.518;-3.188;2022-07-15T11:06:06;102080.04;;;25.35;39.54
72134;BME280;60011;51.518;-3.188;2022-07-15T11:08:49;102083.48;;;25.35;39.57
72134;BME280;60011;51.518;-3.188;2022-07-15T11:10:56;102080.68;;;25.34;39.56
72134;BME280;60011;51.518;-3.188;2022-07-15T11:18:12;102086.85;;;25.30;40.07
72134;BME280;60011;51.518;-3.188;2022-07-15T11:20:37;102087.91;;;25.35;39.81
72134;BME280;60011;51.518;-3.188;2022-07-15T11:23:03;102087.22;;;25.35;39.82
72134;BME280;60011;51.518;-3.188;2022-07-15T11:25:30;102087.91;;;25.35;39.74
72134;BME280;60011;51.518;-3.188;2022-07-15T11:27:55;102083.91;;;25.39;39.62
72134;BME280;60011;51.518;-3.188;2022-07-15T11:30:19;102086.93;;;25.40;39.70
72134;BME280;60011;51.518;-3.188;2022-07-15T11:32:44;102088.66;;;25.43;39.66
72134;BME280;60011;51.518;-3.188;2022-07-15T11:35:09;102090.23;;;25.43;39.75
72134;BME280;60011;51.518;-3.188;2022-07-15T11:37:35;102090.68;;;25.43;39.96
72134;BME280;60011;51.518;-3.188;2022-07-15T11:40:10;102089.72;;;25.44;39.87
72134;BME280;60011;51.518;-3.188;2022-07-15T11:42:25;102091.70;;;25.44;39.84
72134;BME280;60011;51.518;-3.188;2022-07-15T11:44:51;102093.94;;;25.49;39.93
72134;BME280;60011;51.518;-3.188;2022-07-15T11:47:17;102096.62;;;25.48;40.04
72134;BME280;60011;51.518;-3.188;2022-07-15T11:49:41;102091.49;;;25.50;40.20
72134;BME280;60011;51.518;-3.188;2022-07-15T11:52:09;102089.99;;;25.49;40.22
72134;BME280;60011;51.518;-3.188;2022-07-15T11:54:35;102086.36;;;25.49;40.30
72134;BME280;60011;51.518;-3.188;2022-07-15T11:57:01;102078.48;;;25.49;40.47
72134;BME280;60011;51.518;-3.188;2022-07-15T11:59:24;102084.81;;;25.50;40.17
72134;BME280;60011;51.518;-3.188;2022-07-15T12:02:01;102077.74;;;25.53;40.27
72134;BME280;60011;51.518;-3.188;2022-07-15T12:04:15;102072.23;;;25.45;40.94
72134;BME280;60011;51.518;-3.188;2022-07-15T12:06:40;102072.80;;;25.49;40.83
72134;BME280;60011;51.518;-3.188;2022-07-15T12:09:08;102075.63;;;25.50;41.12
72134;BME280;60011;51.518;-3.188;2022-07-15T12:11:34;102072.86;;;25.52;41.60
72134;BME280;60011;51.518;-3.188;2022-07-15T12:13:59;102072.77;;;25.58;41.72
72134;BME280;60011;51.518;-3.188;2022-07-15T12:16:29;102072.69;;;25.59;41.62
72134;BME280;60011;51.518;-3.188;2022-07-15T12:18:48;102061.58;;;25.63;40.69
72134;BME280;60011;51.518;-3.188;2022-07-15T12:21:14;102061.60;;;25.68;41.50
72134;BME280;60011;51.518;-3.188;2022-07-15T12:23:40;102060.79;;;25.75;41.46
72134;BME280;60011;51.518;-3.188;2022-07-15T12:26:07;102058.92;;;25.76;41.34
72134;BME280;60011;51.518;-3.188;2022-07-15T12:28:30;102064.76;;;25.78;41.17
72134;BME280;60011;51.518;-3.188;2022-07-15T12:30:55;102063.71;;;25.75;41.23
72134;BME280;60011;51.518;-3.188;2022-07-15T12:33:22;102058.53;;;25.74;41.43
72134;BME280;60011;51.518;-3.188;2022-07-15T12:35:47;102058.17;;;25.82;41.26
72134;BME280;60011;51.518;-3.188;2022-07-15T12:38:26;102062.92;;;25.83;41.02
72134;BME280;60011;51.518;-3.188;2022-07-15T12:40:38;102064.36;;;25.81;41.15
72134;BME280;60011;51.518;-3.188;2022-07-15T12:43:03;102062.16;;;25.80;41.26